createdAt,value
2022-08-04T00:02:18.801Z,3.40
2022-08-04T00:04:53.217Z,3.00
2022-08-04T00:07:44.596Z,3.30
2022-08-04T00:10:14.184Z,3.67
2022-08-04T00:12:45.053Z,2.80
2022-08-04T00:15:16.691Z,3.03
2022-08-04T00:17:52.667Z,3.17
2022-08-04T00:20:21.161Z,3.00
2022-08-04T00:22:48.898Z,3.20
2022-08-04T00:25:15.980Z,3.23
2022-08-04T00:27:43.958Z,3.37
2022-08-04T00:30:10.940Z,3.70
2022-08-04T00:32:41.446Z,3.20
2022-08-04T00:35:10.088Z,3.87
2022-08-04T00:37:38.784Z,3.30
2022-08-04T00:40:32.573Z,3.30
2022-08-04T00:43:24.129Z,2.70
2022-08-04T00:46:17.001Z,2.70
2022-08-04T00:49:10.693Z,3.03
2022-08-04T00:51:40.862Z,3.10
2022-08-04T00:54:35.935Z,2.17
2022-08-04T00:57:40.643Z,2.97
2022-08-04T01:00:13.219Z,3.13
2022-08-04T01:02:54.232Z,2.80
2022-08-04T01:05:45.568Z,3.47
2022-08-04T01:08:40.389Z,2.97
2022-08-04T01:11:22.110Z,3.80
2022-08-04T01:13:51.779Z,4.50
2022-08-04T01:16:21.277Z,3.83
2022-08-04T01:19:13.177Z,3.50
2022-08-04T01:22:00.883Z,3.50
2022-08-04T01:24:48.669Z,3.07
2022-08-04T01:27:24.413Z,2.60
2022-08-04T01:29:58.998Z,3.40
2022-08-04T01:32:32.178Z,3.20
2022-08-04T01:35:22.265Z,4.07
2022-08-04T01:38:24.420Z,3.40
2022-08-04T01:40:59.274Z,3.17
2022-08-04T01:43:28.290Z,3.10
2022-08-04T01:45:59.005Z,3.50
2022-08-04T01:48:27.131Z,3.27
2022-08-04T01:50:57.141Z,2.83
2022-08-04T01:53:32.473Z,3.40
2022-08-04T01:56:03.834Z,2.93
2022-08-04T01:58:33.473Z,3.20
2022-08-04T02:01:04.920Z,3.43
2022-08-04T02:04:20.113Z,3.83
2022-08-04T02:06:55.671Z,3.13
2022-08-04T02:09:55.319Z,3.47
2022-08-04T02:12:27.496Z,3.50
2022-08-04T02:15:00.123Z,3.30
2022-08-04T02:17:36.633Z,3.50
2022-08-04T02:20:22.995Z,3.80
2022-08-04T02:22:59.073Z,3.20
2022-08-04T02:25:28.289Z,4.03
2022-08-04T02:28:12.613Z,3.60
2022-08-04T02:31:01.357Z,4.03
2022-08-04T02:33:35.936Z,3.53
2022-08-04T02:36:05.523Z,4.43
2022-08-04T02:38:35.102Z,3.93
2022-08-04T02:41:02.116Z,3.90
2022-08-04T02:43:50.876Z,3.80
2022-08-04T02:46:21.642Z,4.37
2022-08-04T02:48:51.421Z,3.80
2022-08-04T02:51:28.112Z,4.20
2022-08-04T02:53:58.068Z,3.50
2022-08-04T02:56:28.102Z,3.63
2022-08-04T02:59:04.542Z,3.60
2022-08-04T03:01:32.432Z,3.57
2022-08-04T03:04:13.830Z,3.40
2022-08-04T03:07:29.086Z,3.87
2022-08-04T03:10:29.503Z,4.07
2022-08-04T03:13:27.944Z,3.47
2022-08-04T03:16:30.008Z,3.43
2022-08-04T03:19:28.355Z,4.60
2022-08-04T03:22:20.582Z,3.27
2022-08-04T03:25:05.824Z,3.60
2022-08-04T03:27:44.405Z,4.00
2022-08-04T03:30:43.346Z,4.00
2022-08-04T03:33:39.722Z,4.07
2022-08-04T03:36:37.967Z,3.83
2022-08-04T03:39:42.237Z,3.63
2022-08-04T03:43:04.158Z,4.47
2022-08-04T03:46:05.868Z,4.03
2022-08-04T03:49:09.986Z,3.77
2022-08-04T03:52:06.888Z,4.03
2022-08-04T03:54:45.523Z,4.23
2022-08-04T03:57:25.476Z,3.80
2022-08-04T04:00:06.294Z,4.03
2022-08-04T04:03:02.254Z,3.70
2022-08-04T04:06:00.391Z,4.40
2022-08-04T04:08:42.653Z,3.73
2022-08-04T04:11:32.100Z,4.00
2022-08-04T04:14:40.318Z,4.60
2022-08-04T04:17:27.945Z,3.83
2022-08-04T04:19:58.866Z,4.70
2022-08-04T04:22:34.294Z,4.50
2022-08-04T04:25:25.182Z,4.37
2022-08-04T04:28:45.056Z,4.20
2022-08-04T04:31:49.015Z,3.90
2022-08-04T04:34:21.451Z,4.40
2022-08-04T04:37:03.492Z,3.90
2022-08-04T04:39:43.269Z,4.07
2022-08-04T04:42:31.899Z,4.40
2022-08-04T04:45:15.326Z,4.10
2022-08-04T04:48:08.677Z,4.07
2022-08-04T04:50:44.489Z,4.10
2022-08-04T04:53:35.804Z,4.33
2022-08-04T04:56:14.918Z,4.53
2022-08-04T04:58:42.887Z,4.30
2022-08-04T05:01:12.653Z,5.27
2022-08-04T05:04:16.950Z,3.50
2022-08-04T05:07:36.046Z,4.30
2022-08-04T05:10:33.091Z,4.30
2022-08-04T05:14:37.119Z,5.27
2022-08-04T05:16:09.313Z,4.27
2022-08-04T05:18:40.325Z,4.10
2022-08-04T05:21:28.197Z,4.67
2022-08-04T05:24:02.362Z,4.20
2022-08-04T05:26:33.053Z,3.80
2022-08-04T05:29:05.393Z,4.00
2022-08-04T05:31:37.794Z,4.00
2022-08-04T05:34:17.277Z,4.30
2022-08-04T05:36:51.032Z,4.00
2022-08-04T05:39:24.356Z,4.23
2022-08-04T05:41:55.569Z,4.87
2022-08-04T05:44:27.376Z,3.80
2022-08-04T05:46:58.695Z,4.60
2022-08-04T05:49:28.341Z,4.17
2022-08-04T05:51:59.469Z,4.40
2022-08-04T05:54:27.611Z,4.77
2022-08-04T05:56:56.255Z,4.63
2022-08-04T05:59:25.766Z,3.97
2022-08-04T06:01:58.113Z,4.97
2022-08-04T06:04:34.834Z,4.20
2022-08-04T06:07:01.796Z,3.80
2022-08-04T06:09:28.629Z,4.07
2022-08-04T06:12:03.641Z,4.30
2022-08-04T06:14:48.657Z,3.70
2022-08-04T06:19:57.766Z,4.30
2022-08-04T06:20:18.117Z,4.33
2022-08-04T06:22:52.759Z,4.10
2022-08-04T06:25:23.667Z,4.87
2022-08-04T06:27:51.661Z,3.83
2022-08-04T06:30:20.055Z,4.30
2022-08-04T06:32:49.710Z,5.40
2022-08-04T06:35:19.454Z,4.37
2022-08-04T06:37:47.658Z,3.63
2022-08-04T06:40:31.656Z,4.80
2022-08-04T06:43:01.141Z,4.20
2022-08-04T06:45:28.403Z,4.00
2022-08-04T06:47:56.104Z,5.27
2022-08-04T06:51:29.756Z,4.43
2022-08-04T06:53:11.823Z,4.27
2022-08-04T06:55:39.839Z,4.47
2022-08-04T06:58:07.378Z,4.43
2022-08-04T07:00:37.702Z,4.60
2022-08-04T07:03:05.404Z,3.70
2022-08-04T07:05:32.723Z,4.10
2022-08-04T07:07:59.998Z,4.10
2022-08-04T07:10:31.112Z,4.80
2022-08-04T07:12:59.765Z,3.97
2022-08-04T07:15:27.918Z,4.23
2022-08-04T07:17:59.826Z,3.97
2022-08-04T07:20:35.788Z,4.33
2022-08-04T07:23:04.791Z,4.77
2022-08-04T07:26:00.279Z,4.53
2022-08-04T07:28:21.895Z,4.03
2022-08-04T07:30:49.615Z,3.80
2022-08-04T07:33:18.299Z,4.20
2022-08-04T07:36:04.499Z,4.50
2022-08-04T07:38:37.602Z,4.20
2022-08-04T07:41:35.308Z,4.33
2022-08-04T07:43:54.857Z,4.03
2022-08-04T07:46:21.924Z,4.00
2022-08-04T07:48:48.837Z,4.70
2022-08-04T07:51:17.152Z,4.20
2022-08-04T07:53:54.348Z,4.70
2022-08-04T07:56:22.620Z,3.67
2022-08-04T07:58:50.439Z,3.90
2022-08-04T08:01:19.097Z,3.88
2022-08-04T08:03:47.385Z,3.63
2022-08-04T08:06:31.376Z,3.80
2022-08-04T08:09:13.126Z,3.85
2022-08-04T08:12:35.250Z,3.60
2022-08-04T08:14:36.855Z,3.80
2022-08-04T08:17:04.929Z,3.45
2022-08-04T08:19:33.403Z,4.30
2022-08-04T08:22:01.626Z,3.60
2022-08-04T08:24:30.668Z,3.45
2022-08-04T08:26:58.836Z,3.65
2022-08-04T08:29:26.687Z,4.20
2022-08-04T08:31:57.581Z,3.47
2022-08-04T08:34:29.245Z,5.05
2022-08-04T08:37:23.537Z,5.63
2022-08-04T08:40:13.285Z,7.03
2022-08-04T08:44:03.854Z,5.90
2022-08-04T08:46:48.845Z,6.50
2022-08-04T08:50:01.612Z,5.82
2022-08-04T08:53:02.664Z,6.30
2022-08-04T08:55:53.825Z,5.15
2022-08-04T08:58:32.288Z,4.30
2022-08-04T09:01:23.939Z,4.30
2022-08-04T09:04:23.616Z,4.88
2022-08-04T09:07:15.945Z,3.28
2022-08-04T09:10:06.771Z,3.45
2022-08-04T09:12:56.444Z,3.30
2022-08-04T09:15:34.685Z,3.10
2022-08-04T09:18:18.512Z,3.10
2022-08-04T09:21:02.182Z,3.20
2022-08-04T09:23:46.578Z,3.20
2022-08-04T09:26:27.503Z,3.13
2022-08-04T09:29:15.866Z,3.90
2022-08-04T09:32:06.818Z,3.05
2022-08-04T09:35:04.599Z,3.03
2022-08-04T09:38:16.804Z,2.10
2022-08-04T09:40:55.223Z,2.70
2022-08-04T09:43:59.095Z,2.40
2022-08-04T09:46:59.760Z,2.28
2022-08-04T09:50:02.313Z,2.53
2022-08-04T09:52:57.910Z,2.42
2022-08-04T09:55:53.420Z,2.58
2022-08-04T09:59:00.860Z,2.88
2022-08-04T10:01:30.251Z,2.38
2022-08-04T10:04:01.990Z,2.97
2022-08-04T10:06:45.743Z,2.65
2022-08-04T10:09:18.061Z,3.17
2022-08-04T10:12:07.459Z,2.85
2022-08-04T10:14:48.224Z,2.67
2022-08-04T10:17:52.707Z,2.85
2022-08-04T10:20:45.785Z,2.80
2022-08-04T10:23:17.656Z,2.30
2022-08-04T10:26:07.437Z,2.45
2022-08-04T10:28:53.326Z,2.63
2022-08-04T10:31:26.532Z,1.95
2022-08-04T10:33:59.893Z,2.33
2022-08-04T10:36:47.022Z,2.47
2022-08-04T10:39:43.770Z,2.20
2022-08-04T10:42:24.488Z,1.88
2022-08-04T10:45:10.188Z,2.50
2022-08-04T10:47:45.202Z,2.20
2022-08-04T10:50:23.460Z,1.98
2022-08-04T10:53:00.137Z,2.33
2022-08-04T10:56:06.756Z,2.92
2022-08-04T10:58:47.949Z,2.70
2022-08-04T11:02:00.035Z,2.28
2022-08-04T11:04:27.013Z,2.90
2022-08-04T11:06:55.165Z,3.35
2022-08-04T11:09:23.097Z,3.17
2022-08-04T11:12:00.751Z,2.20
2022-08-04T11:14:45.231Z,2.72
2022-08-04T11:17:21.140Z,2.50
2022-08-04T11:19:53.541Z,3.55
2022-08-04T11:22:28.404Z,2.78
2022-08-04T11:25:13.486Z,3.13
2022-08-04T11:28:15.537Z,2.60
2022-08-04T11:30:57.776Z,2.90
2022-08-04T11:33:31.816Z,3.47
2022-08-04T11:36:14.109Z,2.95
2022-08-04T11:38:56.408Z,3.00
2022-08-04T11:41:49.478Z,3.20
2022-08-04T11:44:48.421Z,3.67
2022-08-04T11:47:24.486Z,3.10
2022-08-04T11:50:31.928Z,3.80
2022-08-04T11:52:59.678Z,3.17
2022-08-04T11:55:28.302Z,3.60
2022-08-04T11:57:55.691Z,5.47
2022-08-04T12:00:25.370Z,5.00
2022-08-04T12:03:29.461Z,4.93
2022-08-04T12:06:19.933Z,5.03
2022-08-04T12:09:08.205Z,4.70
2022-08-04T12:11:36.952Z,4.27
2022-08-04T12:14:34.493Z,4.27
2022-08-04T12:17:03.872Z,4.27
2022-08-04T12:20:03.399Z,4.03
2022-08-04T12:22:41.089Z,4.03
2022-08-04T12:25:16.460Z,3.67
2022-08-04T12:27:59.498Z,3.67
2022-08-04T12:30:57.970Z,3.80
2022-08-04T12:34:02.807Z,4.70
2022-08-04T12:36:31.516Z,4.40
2022-08-04T12:39:19.581Z,5.45
2022-08-04T12:42:21.379Z,4.18
2022-08-04T12:44:54.032Z,3.72
2022-08-04T12:47:29.262Z,3.45
2022-08-04T12:50:06.722Z,3.05
2022-08-04T12:53:11.060Z,2.80
2022-08-04T12:55:44.990Z,2.90
2022-08-04T12:58:43.089Z,2.75
2022-08-04T13:02:08.182Z,2.60
2022-08-04T13:04:21.707Z,2.70
2022-08-04T13:07:07.575Z,2.50
2022-08-04T13:09:37.638Z,2.63
2022-08-04T13:12:14.904Z,2.35
2022-08-04T13:14:44.452Z,2.67
2022-08-04T13:17:12.210Z,2.45
2022-08-04T13:19:41.503Z,2.58
2022-08-04T13:22:09.131Z,2.13
2022-08-04T13:27:26.765Z,2.40
2022-08-04T13:30:24.520Z,2.83
2022-08-04T13:30:25.057Z,3.47
2022-08-04T13:32:43.930Z,2.83
2022-08-04T13:35:13.212Z,2.40
2022-08-04T13:37:42.190Z,2.58
2022-08-04T13:40:12.687Z,2.20
2022-08-04T13:42:46.200Z,2.70
2022-08-04T13:45:21.475Z,3.28
2022-08-04T13:47:51.505Z,2.22
2022-08-04T13:50:29.703Z,3.05
2022-08-04T13:53:01.114Z,2.40
2022-08-04T13:55:32.761Z,2.70
2022-08-04T13:58:23.285Z,2.67
2022-08-04T14:00:55.122Z,2.85
2022-08-04T14:03:31.976Z,2.10
2022-08-04T14:06:13.831Z,2.67
2022-08-04T14:09:16.139Z,2.55
2022-08-04T14:12:06.251Z,3.03
2022-08-04T14:14:53.423Z,2.42
2022-08-04T14:17:30.266Z,2.75
2022-08-04T14:20:03.386Z,2.70
2022-08-04T14:22:34.653Z,2.75
2022-08-04T14:25:17.038Z,2.20
2022-08-04T14:27:46.767Z,2.25
2022-08-04T14:30:28.753Z,2.60
2022-08-04T14:32:57.835Z,2.20
2022-08-04T14:35:26.528Z,2.20
2022-08-04T14:38:12.743Z,2.53
2022-08-04T14:40:43.112Z,2.80
2022-08-04T14:43:10.372Z,2.40
2022-08-04T14:45:55.428Z,2.40
2022-08-04T14:48:22.916Z,2.60
2022-08-04T14:50:51.154Z,2.17
2022-08-04T14:53:19.065Z,2.57
2022-08-04T14:55:50.788Z,2.50
2022-08-04T14:58:33.956Z,2.83
2022-08-04T15:01:11.769Z,2.80
2022-08-04T15:03:50.782Z,3.20
2022-08-04T15:06:23.479Z,2.93
2022-08-04T15:08:52.274Z,2.63
2022-08-04T15:11:23.470Z,3.33
2022-08-04T15:13:55.299Z,2.90
2022-08-04T15:16:24.875Z,2.63
2022-08-04T15:18:52.696Z,2.70
2022-08-04T15:21:22.389Z,2.77
2022-08-04T15:23:50.885Z,2.90
2022-08-04T15:27:03.963Z,2.97
2022-08-04T15:30:01.329Z,3.10
2022-08-04T15:32:29.996Z,2.70
2022-08-04T15:35:04.766Z,2.80
2022-08-04T15:37:40.212Z,3.20
2022-08-04T15:40:14.653Z,3.17
2022-08-04T15:43:03.964Z,3.03
2022-08-04T15:46:43.396Z,3.47
2022-08-04T15:48:40.617Z,3.23
2022-08-04T15:51:14.561Z,2.90
2022-08-04T15:54:03.374Z,3.10
2022-08-04T15:56:29.874Z,3.20
2022-08-04T15:58:57.213Z,2.80
2022-08-04T16:01:24.974Z,3.20
2022-08-04T16:04:01.251Z,2.67
2022-08-04T16:06:29.642Z,3.20
2022-08-04T16:09:04.584Z,3.53
2022-08-04T16:11:32.771Z,3.33
2022-08-04T16:14:00.023Z,3.10
2022-08-04T16:16:49.774Z,2.70
2022-08-04T16:19:48.785Z,4.00
2022-08-04T16:22:40.046Z,3.23
2022-08-04T16:25:10.149Z,3.87
2022-08-04T16:27:45.376Z,3.67
2022-08-04T16:30:15.036Z,4.10
2022-08-04T16:32:46.628Z,4.30
2022-08-04T16:35:26.184Z,4.80
2022-08-04T16:37:55.810Z,3.53
2022-08-04T16:40:39.245Z,3.47
2022-08-04T16:43:20.823Z,4.67
2022-08-04T16:46:03.209Z,4.00
2022-08-04T16:48:30.864Z,3.80
2022-08-04T16:51:09.572Z,4.13
2022-08-04T16:53:52.089Z,4.37
2022-08-04T16:56:30.501Z,3.63
2022-08-04T16:59:10.347Z,4.20
2022-08-04T17:01:38.412Z,3.50
2022-08-04T17:04:06.118Z,4.23
2022-08-04T17:06:36.239Z,4.10
2022-08-04T17:09:13.605Z,3.50
2022-08-04T17:11:42.908Z,3.50
2022-08-04T17:14:10.104Z,4.60
2022-08-04T17:16:41.842Z,3.70
2022-08-04T17:19:19.904Z,4.50
2022-08-04T17:21:52.324Z,4.00
2022-08-04T17:24:19.261Z,4.57
2022-08-04T17:26:53.988Z,4.03
2022-08-04T17:29:44.572Z,4.43
2022-08-04T17:32:17.391Z,4.60
2022-08-04T17:34:49.301Z,4.30
2022-08-04T17:37:40.181Z,4.10
2022-08-04T17:40:11.116Z,3.93
2022-08-04T17:42:39.884Z,3.80
2022-08-04T17:45:49.228Z,5.30
2022-08-04T17:48:03.566Z,4.20
2022-08-04T17:53:52.902Z,4.33
2022-08-04T17:56:32.259Z,3.93
2022-08-04T17:59:52.944Z,3.67
2022-08-04T18:02:08.869Z,3.90
2022-08-04T18:05:06.009Z,3.40
2022-08-04T18:08:40.213Z,3.93
2022-08-04T18:10:55.594Z,3.47
2022-08-04T18:13:28.290Z,3.97
2022-08-04T18:16:06.229Z,3.70
2022-08-04T18:18:41.881Z,3.70
2022-08-04T18:21:15.962Z,3.57
2022-08-04T18:23:50.869Z,3.90
2022-08-04T18:26:18.078Z,3.30
2022-08-04T18:28:45.117Z,3.63
2022-08-04T18:31:12.000Z,3.37
2022-08-04T18:33:43.576Z,3.40
2022-08-04T18:36:33.707Z,4.03
2022-08-04T18:39:13.222Z,3.53
2022-08-04T18:42:01.083Z,3.27
2022-08-04T18:44:31.030Z,3.40
2022-08-04T18:47:18.954Z,3.50
2022-08-04T18:50:58.862Z,3.50
2022-08-04T18:52:33.287Z,3.50
2022-08-04T18:57:59.018Z,3.40
2022-08-04T19:00:26.897Z,3.83
2022-08-04T19:02:54.069Z,3.90
2022-08-04T19:05:21.208Z,4.40
2022-08-04T19:08:01.959Z,3.30
2022-08-04T19:10:35.168Z,3.63
2022-08-04T19:13:01.895Z,3.60
2022-08-04T19:15:33.931Z,3.90
2022-08-04T19:18:01.385Z,3.40
2022-08-04T19:20:29.320Z,3.53
2022-08-04T19:24:28.151Z,3.70
2022-08-04T19:26:02.021Z,3.50
2022-08-04T19:28:34.407Z,3.83
2022-08-04T19:31:04.057Z,3.67
2022-08-04T19:33:58.867Z,2.57
2022-08-04T19:36:17.770Z,2.50
2022-08-04T19:38:45.378Z,2.57
2022-08-04T19:41:14.242Z,2.57
2022-08-04T19:43:43.610Z,2.70
2022-08-04T19:46:12.305Z,2.57
2022-08-04T19:48:40.099Z,2.30
2022-08-04T19:51:07.834Z,2.43
2022-08-04T19:53:37.282Z,2.87
2022-08-04T19:56:05.426Z,2.57
2022-08-04T19:58:32.306Z,2.63
2022-08-04T20:00:59.058Z,2.53
2022-08-04T20:04:08.125Z,2.40
2022-08-04T20:06:12.901Z,2.33
2022-08-04T20:08:47.950Z,2.50
2022-08-04T20:11:16.689Z,2.20
2022-08-04T20:13:45.266Z,2.33
2022-08-04T20:16:30.050Z,2.70
2022-08-04T20:19:02.867Z,2.27
2022-08-04T20:21:53.580Z,2.90
2022-08-04T20:24:37.648Z,2.73
2022-08-04T20:27:07.796Z,2.57
2022-08-04T20:29:40.612Z,2.20
2022-08-04T20:32:10.210Z,2.40
2022-08-04T20:34:38.009Z,2.67
2022-08-04T20:37:07.209Z,2.47
2022-08-04T20:39:37.261Z,2.87
2022-08-04T20:42:04.191Z,3.20
2022-08-04T20:44:30.952Z,2.57
2022-08-04T20:46:57.705Z,2.73
2022-08-04T20:49:34.895Z,3.10
2022-08-04T20:52:13.328Z,2.70
2022-08-04T20:57:49.693Z,2.70
2022-08-04T21:00:29.619Z,2.30
2022-08-04T21:02:58.489Z,3.77
2022-08-04T21:05:26.453Z,3.50
2022-08-04T21:07:56.653Z,2.87
2022-08-04T21:10:25.776Z,3.03
2022-08-04T21:12:53.906Z,3.07
2022-08-04T21:15:25.570Z,2.70
2022-08-04T21:17:58.679Z,3.03
2022-08-04T21:20:31.544Z,2.93
2022-08-04T21:23:01.700Z,3.93
2022-08-04T21:25:29.514Z,4.10
2022-08-04T21:27:58.796Z,3.20
2022-08-04T21:30:26.680Z,3.30
2022-08-04T21:32:55.404Z,3.63
2022-08-04T21:35:37.098Z,2.83
2022-08-04T21:38:17.607Z,2.97
2022-08-04T21:40:56.134Z,2.80
2022-08-04T21:43:27.023Z,2.77
2022-08-04T21:45:54.933Z,2.57
2022-08-04T21:48:22.625Z,2.97
2022-08-04T21:50:50.368Z,3.70
2022-08-04T21:53:18.792Z,3.40
2022-08-04T21:56:06.032Z,4.00
2022-08-04T21:58:36.777Z,4.70
2022-08-04T22:01:13.118Z,4.23
2022-08-04T22:03:52.404Z,3.47
2022-08-04T22:06:28.639Z,3.80
2022-08-04T22:08:57.057Z,4.23
2022-08-04T22:11:27.400Z,3.93
2022-08-04T22:14:14.329Z,4.87
2022-08-04T22:16:41.093Z,4.90
2022-08-04T22:19:08.828Z,5.80
2022-08-04T22:21:39.326Z,5.43
2022-08-04T22:24:13.927Z,4.83
2022-08-04T22:26:41.379Z,5.00
2022-08-04T22:29:14.159Z,4.53
2022-08-04T22:31:53.248Z,4.87
2022-08-04T22:34:24.227Z,5.03
2022-08-04T22:36:51.151Z,5.20
2022-08-04T22:39:23.601Z,5.07
2022-08-04T22:42:03.934Z,4.90
2022-08-04T22:44:32.386Z,5.73
2022-08-04T22:47:01.122Z,5.63
2022-08-04T22:49:31.698Z,4.90
2022-08-04T22:51:59.109Z,4.60
2022-08-04T22:54:28.505Z,4.30
2022-08-04T22:56:57.106Z,4.53
2022-08-04T22:59:24.251Z,4.50
2022-08-04T23:02:00.845Z,4.03
2022-08-04T23:04:30.926Z,4.57
2022-08-04T23:06:58.244Z,4.30
2022-08-04T23:09:49.513Z,3.90
2022-08-04T23:12:26.113Z,4.10
2022-08-04T23:14:55.114Z,5.13
2022-08-04T23:17:22.909Z,4.00
2022-08-04T23:19:57.857Z,4.70
2022-08-04T23:22:41.648Z,4.60
2022-08-04T23:25:16.112Z,4.43
2022-08-04T23:27:51.521Z,4.70
2022-08-04T23:30:29.487Z,4.80
2022-08-04T23:32:57.454Z,5.20
2022-08-04T23:35:24.408Z,5.63
2022-08-04T23:37:56.876Z,4.60
2022-08-04T23:40:34.127Z,4.77
2022-08-04T23:43:16.902Z,5.03
2022-08-04T23:46:03.855Z,5.37
2022-08-04T23:48:39.310Z,4.93
2022-08-04T23:51:14.468Z,4.47
2022-08-04T23:54:03.227Z,5.23
2022-08-04T23:56:35.026Z,5.13
2022-08-04T23:59:04.092Z,5.37
